createdAt,value
2023-03-27T00:00:08.885Z,92667.00
2023-03-27T00:02:57.554Z,92660.40
2023-03-27T00:05:29.047Z,92656.20
2023-03-27T00:07:59.889Z,92650.80
2023-03-27T00:10:28.012Z,92654.40
2023-03-27T00:12:55.656Z,92657.00
2023-03-27T00:15:23.437Z,92658.40
2023-03-27T00:17:52.024Z,92662.60
2023-03-27T00:20:24.543Z,92666.20
2023-03-27T00:22:56.450Z,92660.60
2023-03-27T00:25:25.570Z,92654.20
2023-03-27T00:27:54.462Z,92651.00
2023-03-27T00:30:22.103Z,92644.00
2023-03-27T00:32:49.927Z,92639.00
2023-03-27T00:35:17.863Z,92629.40
2023-03-27T00:37:45.644Z,92633.00
2023-03-27T00:40:20.261Z,92632.40
2023-03-27T00:42:48.224Z,92625.00
2023-03-27T00:45:15.922Z,92616.20
2023-03-27T00:47:43.724Z,92615.40
2023-03-27T00:50:11.644Z,92612.00
2023-03-27T00:52:39.138Z,92612.80
2023-03-27T00:55:09.327Z,92615.60
2023-03-27T00:57:37.127Z,92613.80
2023-03-27T01:00:10.935Z,92608.80
2023-03-27T01:02:38.539Z,92604.00
2023-03-27T01:05:07.096Z,92602.80
2023-03-27T01:07:34.774Z,92601.40
2023-03-27T01:10:09.776Z,92601.20
2023-03-27T01:12:37.691Z,92595.40
2023-03-27T01:15:05.486Z,92593.40
2023-03-27T01:17:33.238Z,92588.40
2023-03-27T01:20:01.172Z,92581.00
2023-03-27T01:22:28.896Z,92576.00
2023-03-27T01:24:56.567Z,92577.20
2023-03-27T01:27:25.876Z,92571.00
2023-03-27T01:29:53.431Z,92569.20
2023-03-27T01:32:22.313Z,92563.00
2023-03-27T01:35:01.203Z,92553.60
2023-03-27T01:37:30.787Z,92556.20
2023-03-27T01:40:01.080Z,92546.40
2023-03-27T01:42:28.620Z,92552.80
2023-03-27T01:44:56.338Z,92549.20
2023-03-27T01:47:24.115Z,92544.00
2023-03-27T01:49:52.236Z,92539.40
2023-03-27T01:52:19.990Z,92538.60
2023-03-27T01:54:50.008Z,92535.00
2023-03-27T01:57:20.889Z,92535.80
2023-03-27T01:59:48.462Z,92539.40
2023-03-27T02:02:16.048Z,92533.40
2023-03-27T02:04:43.723Z,92531.20
2023-03-27T02:07:12.416Z,92527.40
2023-03-27T02:09:40.654Z,92522.40
2023-03-27T02:12:08.527Z,92523.60
2023-03-27T02:14:36.280Z,92516.60
2023-03-27T02:17:04.261Z,92517.00
2023-03-27T02:19:33.864Z,92515.00
2023-03-27T02:22:02.128Z,92518.20
2023-03-27T02:24:29.755Z,92517.40
2023-03-27T02:26:57.387Z,92513.20
2023-03-27T02:29:25.332Z,92508.40
2023-03-27T02:31:53.030Z,92507.80
2023-03-27T02:34:20.693Z,92505.40
2023-03-27T02:36:51.007Z,92509.60
2023-03-27T02:39:19.004Z,92513.00
2023-03-27T02:41:46.500Z,92511.20
2023-03-27T02:44:14.287Z,92511.00
2023-03-27T02:46:41.841Z,92509.60
2023-03-27T02:49:10.232Z,92514.40
2023-03-27T02:51:38.010Z,92514.00
2023-03-27T02:54:07.012Z,92514.80
2023-03-27T02:56:34.602Z,92511.60
2023-03-27T02:59:03.931Z,92510.40
2023-03-27T03:01:32.538Z,92508.40
2023-03-27T03:04:00.123Z,92518.60
2023-03-27T03:06:30.387Z,92518.80
2023-03-27T03:09:02.715Z,92521.80
2023-03-27T03:11:30.831Z,92521.60
2023-03-27T03:13:58.366Z,92521.00
2023-03-27T03:16:26.114Z,92522.40
2023-03-27T03:18:54.063Z,92525.60
2023-03-27T03:21:22.120Z,92531.20
2023-03-27T03:23:58.742Z,92534.80
2023-03-27T03:26:27.871Z,92533.00
2023-03-27T03:29:00.498Z,92535.00
2023-03-27T03:31:43.139Z,92530.60
2023-03-27T03:34:11.281Z,92530.80
2023-03-27T03:36:38.823Z,92528.00
2023-03-27T03:39:07.708Z,92524.40
2023-03-27T03:41:35.342Z,92514.60
2023-03-27T03:44:02.840Z,92516.00
2023-03-27T03:46:30.838Z,92516.80
2023-03-27T03:48:59.367Z,92517.60
2023-03-27T03:51:28.285Z,92512.80
2023-03-27T03:53:56.637Z,92509.40
2023-03-27T03:56:24.294Z,92503.20
2023-03-27T03:58:52.690Z,92505.00
2023-03-27T04:01:20.804Z,92502.60
2023-03-27T04:03:48.759Z,92500.40
2023-03-27T04:06:21.007Z,92500.20
2023-03-27T04:08:48.920Z,92501.80
2023-03-27T04:11:16.668Z,92501.00
2023-03-27T04:13:45.152Z,92492.00
2023-03-27T04:16:12.820Z,92490.40
2023-03-27T04:18:41.591Z,92490.00
2023-03-27T04:21:14.915Z,92487.00
2023-03-27T04:23:42.693Z,92487.20
2023-03-27T04:26:12.461Z,92484.60
2023-03-27T04:28:40.107Z,92488.80
2023-03-27T04:31:10.882Z,92489.00
2023-03-27T04:33:39.781Z,92484.20
2023-03-27T04:36:08.121Z,92479.80
2023-03-27T04:38:37.077Z,92479.60
2023-03-27T04:41:04.860Z,92479.00
2023-03-27T04:43:32.430Z,92475.60
2023-03-27T04:46:00.299Z,92476.60
2023-03-27T04:48:27.908Z,92476.60
2023-03-27T04:50:55.757Z,92473.20
2023-03-27T04:53:23.660Z,92470.60
2023-03-27T04:55:51.435Z,92475.60
2023-03-27T04:58:19.197Z,92472.40
2023-03-27T05:00:50.562Z,92472.00
2023-03-27T05:03:19.214Z,92470.80
2023-03-27T05:05:46.944Z,92469.80
2023-03-27T05:08:14.528Z,92464.20
2023-03-27T05:10:42.240Z,92475.40
2023-03-27T05:13:10.095Z,92475.80
2023-03-27T05:15:39.160Z,92480.20
2023-03-27T05:18:07.568Z,92480.60
2023-03-27T05:20:35.277Z,92480.40
2023-03-27T05:23:03.042Z,92483.40
2023-03-27T05:25:30.966Z,92489.00
2023-03-27T05:27:58.664Z,92491.20
2023-03-27T05:30:29.409Z,92498.40
2023-03-27T05:32:59.594Z,92493.60
2023-03-27T05:35:28.520Z,92496.00
2023-03-27T05:37:57.115Z,92494.00
2023-03-27T05:40:28.167Z,92495.80
2023-03-27T05:42:55.789Z,92497.80
2023-03-27T05:45:23.860Z,92501.60
2023-03-27T05:47:51.940Z,92498.60
2023-03-27T05:50:19.767Z,92502.00
2023-03-27T05:52:47.386Z,92501.60
2023-03-27T05:55:15.762Z,92497.40
2023-03-27T05:57:43.380Z,92499.60
2023-03-27T06:00:11.809Z,92504.00
2023-03-27T06:02:39.783Z,92502.60
2023-03-27T06:05:16.714Z,92504.20
2023-03-27T06:07:44.454Z,92507.40
2023-03-27T06:10:14.142Z,92509.00
2023-03-27T06:12:42.927Z,92502.20
2023-03-27T06:15:10.736Z,92501.20
2023-03-27T06:17:38.257Z,92502.60
2023-03-27T06:20:12.991Z,92502.60
2023-03-27T06:22:40.781Z,92505.80
2023-03-27T06:25:09.070Z,92503.20
2023-03-27T06:27:37.706Z,92506.80
2023-03-27T06:30:05.425Z,92507.80
2023-03-27T06:32:34.121Z,92512.20
2023-03-27T06:35:02.833Z,92510.40
2023-03-27T06:37:33.988Z,92513.20
2023-03-27T06:40:13.292Z,92511.60
2023-03-27T06:42:43.187Z,92514.20
2023-03-27T06:45:11.155Z,92518.00
2023-03-27T06:47:48.138Z,92519.00
2023-03-27T06:50:21.836Z,92522.40
2023-03-27T06:52:49.494Z,92517.00
2023-03-27T06:55:17.244Z,92521.00
2023-03-27T06:57:44.869Z,92517.40
2023-03-27T07:00:19.571Z,92514.20
2023-03-27T07:02:47.730Z,92516.20
2023-03-27T07:05:16.599Z,92517.20
2023-03-27T07:07:47.365Z,92520.60
2023-03-27T07:10:16.334Z,92518.20
2023-03-27T07:12:43.889Z,92520.80
2023-03-27T07:15:12.075Z,92519.80
2023-03-27T07:17:48.890Z,92519.40
2023-03-27T07:20:17.168Z,92517.00
2023-03-27T07:22:44.677Z,92517.00
2023-03-27T07:25:15.836Z,92516.40
2023-03-27T07:27:43.437Z,92524.20
2023-03-27T07:30:13.303Z,92519.40
2023-03-27T07:32:42.017Z,92524.00
2023-03-27T07:35:09.778Z,92523.20
2023-03-27T07:37:38.516Z,92526.20
2023-03-27T07:40:13.327Z,92527.80
2023-03-27T07:42:45.133Z,92530.60
2023-03-27T07:45:13.364Z,92533.20
2023-03-27T07:47:43.486Z,92532.40
2023-03-27T07:50:11.715Z,92536.00
2023-03-27T07:53:02.519Z,92535.80
2023-03-27T07:55:38.031Z,92538.00
2023-03-27T07:58:08.274Z,92536.80
2023-03-27T08:00:36.330Z,92536.40
2023-03-27T08:03:04.328Z,92537.40
2023-03-27T08:05:32.383Z,92539.60
2023-03-27T08:08:00.674Z,92542.20
2023-03-27T08:10:32.210Z,92545.60
2023-03-27T08:13:02.199Z,92549.40
2023-03-27T08:15:46.612Z,92545.80
2023-03-27T08:18:15.815Z,92546.20
2023-03-27T08:20:43.494Z,92546.80
2023-03-27T08:23:11.853Z,92550.00
2023-03-27T08:25:42.581Z,92554.80
2023-03-27T08:28:10.981Z,92549.60
2023-03-27T08:30:41.695Z,92550.60
2023-03-27T08:33:10.012Z,92549.40
2023-03-27T08:35:37.917Z,92551.80
2023-03-27T08:38:09.267Z,92548.40
2023-03-27T08:40:48.560Z,92543.00
2023-03-27T08:43:18.614Z,92541.80
2023-03-27T08:45:46.210Z,92543.00
2023-03-27T08:48:13.856Z,92542.60
2023-03-27T08:50:41.486Z,92539.40
2023-03-27T08:53:09.779Z,92537.80
2023-03-27T08:55:37.904Z,92537.40
2023-03-27T08:58:05.464Z,92540.40
2023-03-27T09:00:33.662Z,92535.40
2023-03-27T09:03:12.583Z,92533.40
2023-03-27T09:05:40.685Z,92531.00
2023-03-27T09:08:10.389Z,92530.40
2023-03-27T09:10:40.871Z,92532.00
2023-03-27T09:13:08.744Z,92530.40
2023-03-27T09:15:39.057Z,92531.00
2023-03-27T09:18:10.110Z,92533.80
2023-03-27T09:20:48.176Z,92536.80
2023-03-27T09:23:18.181Z,92531.00
2023-03-27T09:25:47.618Z,92532.00
2023-03-27T09:28:15.958Z,92535.40
2023-03-27T09:30:43.933Z,92540.00
2023-03-27T09:33:12.473Z,92535.80
2023-03-27T09:35:40.083Z,92538.00
2023-03-27T09:38:08.367Z,92537.80
2023-03-27T09:40:35.981Z,92538.60
2023-03-27T09:43:03.937Z,92535.80
2023-03-27T09:45:31.624Z,92537.60
2023-03-27T09:47:59.323Z,92540.60
2023-03-27T09:50:27.902Z,92542.00
2023-03-27T09:52:56.815Z,92542.40
2023-03-27T09:55:24.470Z,92540.20
2023-03-27T09:58:06.753Z,92536.80
2023-03-27T10:00:35.207Z,92545.40
2023-03-27T10:03:04.333Z,92547.40
2023-03-27T10:05:32.692Z,92550.60
2023-03-27T10:08:00.428Z,92553.60
2023-03-27T10:10:33.511Z,92552.00
2023-03-27T10:13:03.693Z,92556.40
2023-03-27T10:15:31.945Z,92553.60
2023-03-27T10:18:01.185Z,92557.40
2023-03-27T10:20:29.331Z,92558.40
2023-03-27T10:22:58.545Z,92554.20
2023-03-27T10:25:30.077Z,92546.40
2023-03-27T10:28:01.041Z,92547.80
2023-03-27T10:30:31.241Z,92547.20
2023-03-27T10:33:02.369Z,92541.20
2023-03-27T10:35:36.585Z,92542.00
2023-03-27T10:38:07.359Z,92546.00
2023-03-27T10:40:37.083Z,92546.00
2023-03-27T10:43:12.827Z,92556.80
2023-03-27T10:45:42.407Z,92561.60
2023-03-27T10:48:11.613Z,92557.40
2023-03-27T10:50:44.358Z,92569.00
2023-03-27T10:53:12.722Z,92573.60
2023-03-27T10:55:45.319Z,92583.40
2023-03-27T10:58:13.292Z,92587.80
2023-03-27T11:00:44.561Z,92593.60
2023-03-27T11:03:13.048Z,92585.60
2023-03-27T11:05:41.625Z,92594.40
2023-03-27T11:08:13.581Z,92595.40
2023-03-27T11:10:41.815Z,92603.60
2023-03-27T11:13:12.256Z,92602.20
2023-03-27T11:15:44.514Z,92607.60
2023-03-27T11:18:14.383Z,92618.40
2023-03-27T11:20:56.654Z,92633.00
2023-03-27T11:23:45.414Z,92628.00
2023-03-27T11:26:33.298Z,92640.40
2023-03-27T11:29:15.370Z,92645.00
2023-03-27T11:31:53.998Z,92654.80
2023-03-27T11:34:29.387Z,92654.60
2023-03-27T11:36:58.152Z,92680.40
2023-03-27T11:39:28.303Z,92688.20
2023-03-27T11:42:05.275Z,92693.60
2023-03-27T11:44:33.390Z,92695.20
2023-03-27T11:47:01.306Z,92706.20
2023-03-27T11:49:29.242Z,92716.80
2023-03-27T11:51:57.624Z,92722.40
2023-03-27T11:54:25.399Z,92730.80
2023-03-27T11:57:01.853Z,92749.20
2023-03-27T11:59:29.883Z,92756.20
2023-03-27T12:02:00.193Z,92760.80
2023-03-27T12:04:28.053Z,92771.00
2023-03-27T12:07:12.338Z,92767.20
2023-03-27T12:10:03.500Z,92773.40
2023-03-27T12:12:32.617Z,92785.80
2023-03-27T12:15:10.167Z,92791.00
2023-03-27T12:17:39.999Z,92796.40
2023-03-27T12:20:10.880Z,92808.60
2023-03-27T12:22:38.573Z,92817.40
2023-03-27T12:25:07.670Z,92827.60
2023-03-27T12:27:39.493Z,92827.20
2023-03-27T12:30:07.778Z,92833.60
2023-03-27T12:32:35.811Z,92843.20
2023-03-27T12:35:06.493Z,92848.40
2023-03-27T12:37:34.665Z,92858.80
2023-03-27T12:40:14.548Z,92867.00
2023-03-27T12:42:44.492Z,92872.80
2023-03-27T12:45:14.439Z,92872.40
2023-03-27T12:47:44.901Z,92874.20
2023-03-27T12:50:12.524Z,92886.80
2023-03-27T12:52:40.174Z,92897.40
2023-03-27T12:55:09.660Z,92906.00
2023-03-27T12:57:37.565Z,92923.00
2023-03-27T13:00:10.456Z,92924.40
2023-03-27T13:02:38.522Z,92924.80
2023-03-27T13:05:16.472Z,92936.20
2023-03-27T13:07:49.147Z,92942.60
2023-03-27T13:10:17.007Z,92951.20
2023-03-27T13:12:48.426Z,92957.40
2023-03-27T13:15:16.794Z,92962.00
2023-03-27T13:17:50.970Z,92967.60
2023-03-27T13:20:25.600Z,92967.80
2023-03-27T13:22:53.571Z,92984.40
2023-03-27T13:25:21.985Z,92984.20
2023-03-27T13:27:50.890Z,92981.00
2023-03-27T13:30:20.519Z,92996.60
2023-03-27T13:32:50.543Z,92991.20
2023-03-27T13:35:18.356Z,93012.80
2023-03-27T13:37:48.328Z,93013.40
2023-03-27T13:40:20.743Z,93022.40
2023-03-27T13:42:48.361Z,93030.20
2023-03-27T13:45:16.101Z,93041.00
2023-03-27T13:47:43.934Z,93042.20
2023-03-27T13:50:14.351Z,93057.40
2023-03-27T13:52:43.963Z,93057.40
2023-03-27T13:55:14.124Z,93070.00
2023-03-27T13:57:42.425Z,93069.40
2023-03-27T14:00:11.100Z,93075.60
2023-03-27T14:02:39.109Z,93077.80
2023-03-27T14:05:09.127Z,93090.20
2023-03-27T14:07:37.086Z,93096.20
2023-03-27T14:10:07.554Z,93101.40
2023-03-27T14:12:37.908Z,93102.40
2023-03-27T14:15:08.561Z,93107.40
2023-03-27T14:17:38.139Z,93108.20
2023-03-27T14:20:12.625Z,93119.20
2023-03-27T14:22:42.035Z,93121.80
2023-03-27T14:25:23.569Z,93129.40
2023-03-27T14:28:11.613Z,93134.60
2023-03-27T14:30:39.169Z,93143.60
2023-03-27T14:33:10.340Z,93143.40
2023-03-27T14:35:39.842Z,93151.60
2023-03-27T14:38:08.018Z,93153.60
2023-03-27T14:40:35.643Z,93167.80
2023-03-27T14:43:03.627Z,93173.00
2023-03-27T14:45:36.076Z,93179.20
2023-03-27T14:48:03.846Z,93177.40
2023-03-27T14:50:31.782Z,93194.40
2023-03-27T14:53:01.381Z,93199.40
2023-03-27T14:55:30.382Z,93204.80
2023-03-27T14:57:58.416Z,93218.20
2023-03-27T15:00:26.398Z,93217.40
2023-03-27T15:02:54.824Z,93223.60
2023-03-27T15:05:23.402Z,93230.80
2023-03-27T15:07:52.148Z,93234.60
2023-03-27T15:10:21.458Z,93230.80
2023-03-27T15:12:50.366Z,93244.40
2023-03-27T15:15:18.353Z,93244.40
2023-03-27T15:17:46.413Z,93247.60
2023-03-27T15:20:24.852Z,93249.40
2023-03-27T15:22:54.011Z,93260.80
2023-03-27T15:25:25.462Z,93265.60
2023-03-27T15:27:58.034Z,93270.20
2023-03-27T15:30:45.852Z,93279.00
2023-03-27T15:33:16.199Z,93283.20
2023-03-27T15:35:46.947Z,93291.20
2023-03-27T15:38:29.575Z,93291.80
2023-03-27T15:40:58.237Z,93293.80
2023-03-27T15:43:29.942Z,93297.20
2023-03-27T15:46:17.946Z,93313.20
2023-03-27T15:48:55.507Z,93316.40
2023-03-27T15:51:23.346Z,93316.20
2023-03-27T15:54:01.396Z,93320.60
2023-03-27T15:56:33.342Z,93326.20
2023-03-27T15:59:08.055Z,93333.60
2023-03-27T16:01:38.725Z,93337.60
2023-03-27T16:04:10.895Z,93344.00
2023-03-27T16:06:39.730Z,93356.40
2023-03-27T16:09:13.497Z,93365.40
2023-03-27T16:11:44.602Z,93365.40
2023-03-27T16:14:12.371Z,93368.80
2023-03-27T16:16:45.527Z,93374.80
2023-03-27T16:19:16.314Z,93377.80
2023-03-27T16:22:06.103Z,93382.20
2023-03-27T16:24:44.345Z,93385.40
2023-03-27T16:27:32.498Z,93391.40
2023-03-27T16:30:04.876Z,93395.80
2023-03-27T16:32:33.022Z,93412.80
2023-03-27T16:35:05.737Z,93419.40
2023-03-27T16:37:33.362Z,93421.40
2023-03-27T16:40:21.019Z,93422.20
2023-03-27T16:42:52.358Z,93433.60
2023-03-27T16:45:20.146Z,93436.60
2023-03-27T16:47:51.524Z,93449.00
2023-03-27T16:50:30.234Z,93448.00
2023-03-27T16:52:58.879Z,93451.00
2023-03-27T16:55:26.766Z,93453.00
2023-03-27T16:57:55.764Z,93463.20
2023-03-27T17:00:24.436Z,93463.40
2023-03-27T17:02:54.816Z,93472.60
2023-03-27T17:05:25.860Z,93476.80
2023-03-27T17:07:54.082Z,93484.80
2023-03-27T17:10:24.258Z,93480.00
2023-03-27T17:12:52.605Z,93481.80
2023-03-27T17:15:20.497Z,93492.20
2023-03-27T17:17:51.048Z,93488.20
2023-03-27T17:20:19.496Z,93498.20
2023-03-27T17:22:47.500Z,93504.00
2023-03-27T17:25:16.159Z,93505.20
2023-03-27T17:27:47.657Z,93512.40
2023-03-27T17:30:30.441Z,93521.20
2023-03-27T17:33:06.250Z,93525.00
2023-03-27T17:35:34.444Z,93530.20
2023-03-27T17:38:04.445Z,93530.40
2023-03-27T17:40:33.334Z,93532.20
2023-03-27T17:43:01.530Z,93538.00
2023-03-27T17:45:30.916Z,93542.40
2023-03-27T17:47:58.943Z,93554.60
2023-03-27T17:50:28.541Z,93553.60
2023-03-27T17:52:57.255Z,93558.60
2023-03-27T17:55:26.610Z,93564.20
2023-03-27T17:58:08.375Z,93565.80
2023-03-27T18:00:38.367Z,93569.60
2023-03-27T18:03:06.764Z,93575.80
2023-03-27T18:05:34.988Z,93583.20
2023-03-27T18:08:02.729Z,93583.80
2023-03-27T18:10:30.877Z,93592.40
2023-03-27T18:12:59.106Z,93591.80
2023-03-27T18:15:28.543Z,93592.00
2023-03-27T18:17:56.276Z,93593.20
2023-03-27T18:20:23.838Z,93591.20
2023-03-27T18:22:51.773Z,93595.60
2023-03-27T18:25:19.926Z,93599.20
2023-03-27T18:27:47.779Z,93602.00
2023-03-27T18:30:15.422Z,93602.40
2023-03-27T18:32:43.560Z,93604.00
2023-03-27T18:35:14.115Z,93612.60
2023-03-27T18:37:42.331Z,93611.60
2023-03-27T18:40:09.852Z,93613.40
2023-03-27T18:42:38.056Z,93620.00
2023-03-27T18:45:06.409Z,93621.40
2023-03-27T18:51:23.223Z,93635.00
2023-03-27T18:54:09.690Z,93632.00
2023-03-27T18:56:42.789Z,93632.00
2023-03-27T18:59:11.562Z,93626.20
2023-03-27T19:01:39.736Z,93630.80
2023-03-27T19:04:09.054Z,93631.20
2023-03-27T19:06:38.004Z,93636.40
2023-03-27T19:09:10.444Z,93635.80
2023-03-27T19:11:41.506Z,93639.80
2023-03-27T19:14:10.253Z,93638.20
2023-03-27T19:16:41.158Z,93639.60
2023-03-27T19:19:09.641Z,93640.00
2023-03-27T19:21:38.918Z,93633.80
2023-03-27T19:24:07.756Z,93634.20
2023-03-27T19:26:38.014Z,93641.60
2023-03-27T19:29:06.846Z,93638.00
2023-03-27T19:31:35.851Z,93641.80
2023-03-27T19:34:04.158Z,93643.20
2023-03-27T19:36:32.599Z,93647.00
2023-03-27T19:39:07.249Z,93648.20
2023-03-27T19:41:35.910Z,93653.20
2023-03-27T19:44:04.496Z,93652.80
2023-03-27T19:46:33.989Z,93651.00
2023-03-27T19:49:03.203Z,93650.80
2023-03-27T19:51:32.108Z,93651.60
2023-03-27T19:54:00.485Z,93658.00
2023-03-27T19:56:30.032Z,93661.80
2023-03-27T19:58:58.560Z,93667.00
2023-03-27T20:01:32.780Z,93669.80
2023-03-27T20:04:02.854Z,93666.80
2023-03-27T20:06:31.344Z,93668.40
2023-03-27T20:09:01.567Z,93667.40
2023-03-27T20:11:31.258Z,93669.80
2023-03-27T20:14:00.199Z,93668.80
2023-03-27T20:16:29.897Z,93666.80
2023-03-27T20:19:08.926Z,93661.00
2023-03-27T20:21:37.920Z,93664.60
2023-03-27T20:24:07.021Z,93660.40
2023-03-27T20:26:39.522Z,93661.40
2023-03-27T20:29:07.696Z,93674.20
2023-03-27T20:31:37.263Z,93671.40
2023-03-27T20:34:05.713Z,93674.20
2023-03-27T20:36:35.155Z,93681.40
2023-03-27T20:39:04.982Z,93678.80
2023-03-27T20:41:32.977Z,93684.40
2023-03-27T20:44:02.542Z,93686.60
2023-03-27T20:46:30.699Z,93686.60
2023-03-27T20:48:58.350Z,93688.00
2023-03-27T20:51:26.118Z,93688.40
2023-03-27T20:53:58.171Z,93683.00
2023-03-27T20:56:25.804Z,93686.80
2023-03-27T20:58:53.664Z,93690.80
2023-03-27T21:01:28.449Z,93687.20
2023-03-27T21:03:58.655Z,93689.40
2023-03-27T21:06:28.763Z,93691.00
2023-03-27T21:08:56.503Z,93689.20
2023-03-27T21:11:24.060Z,93687.60
2023-03-27T21:13:52.112Z,93689.60
2023-03-27T21:16:20.170Z,93689.80
2023-03-27T21:18:47.979Z,93689.40
2023-03-27T21:21:18.466Z,93691.60
2023-03-27T21:23:48.343Z,93688.60
2023-03-27T21:26:16.618Z,93694.60
2023-03-27T21:28:45.100Z,93692.20
2023-03-27T21:31:12.767Z,93692.20
2023-03-27T21:33:40.405Z,93691.60
2023-03-27T21:36:13.531Z,93694.40
2023-03-27T21:38:41.369Z,93702.80
2023-03-27T21:41:08.987Z,93698.60
2023-03-27T21:43:37.286Z,93698.60
2023-03-27T21:46:06.616Z,93701.60
2023-03-27T21:48:34.308Z,93702.40
2023-03-27T21:51:02.758Z,93702.00
2023-03-27T21:53:30.630Z,93702.40
2023-03-27T21:55:58.550Z,93702.00
2023-03-27T21:58:26.750Z,93702.20
2023-03-27T22:00:54.287Z,93704.20
2023-03-27T22:03:25.768Z,93706.80
2023-03-27T22:06:10.213Z,93705.00
2023-03-27T22:08:42.301Z,93702.60
2023-03-27T22:11:20.864Z,93704.60
2023-03-27T22:13:49.427Z,93709.20
2023-03-27T22:16:18.430Z,93705.80
2023-03-27T22:18:47.576Z,93705.20
2023-03-27T22:21:15.605Z,93709.60
2023-03-27T22:23:44.064Z,93707.00
2023-03-27T22:26:11.928Z,93708.80
2023-03-27T22:28:39.864Z,93711.40
2023-03-27T22:31:07.981Z,93711.80
2023-03-27T22:33:35.979Z,93718.20
2023-03-27T22:36:03.919Z,93717.00
2023-03-27T22:38:31.843Z,93721.60
2023-03-27T22:40:59.957Z,93725.40
2023-03-27T22:43:27.615Z,93721.20
2023-03-27T22:45:55.239Z,93725.60
2023-03-27T22:48:22.779Z,93729.00
2023-03-27T22:50:50.602Z,93734.60
2023-03-27T22:53:18.287Z,93736.00
2023-03-27T22:55:46.539Z,93737.40
2023-03-27T22:58:14.053Z,93741.80
2023-03-27T23:00:43.975Z,93745.20
2023-03-27T23:03:12.764Z,93743.60
2023-03-27T23:05:40.406Z,93738.80
2023-03-27T23:08:08.115Z,93740.60
2023-03-27T23:10:35.774Z,93743.60
2023-03-27T23:13:04.080Z,93742.20
2023-03-27T23:15:32.333Z,93744.80
2023-03-27T23:18:02.964Z,93750.60
2023-03-27T23:20:31.533Z,93751.80
2023-03-27T23:22:59.197Z,93751.80
2023-03-27T23:25:27.187Z,93752.40
2023-03-27T23:27:54.771Z,93753.60
2023-03-27T23:30:22.724Z,93753.40
2023-03-27T23:32:50.414Z,93750.60
2023-03-27T23:35:17.927Z,93745.80
2023-03-27T23:37:47.917Z,93749.80
2023-03-27T23:40:15.732Z,93753.80
2023-03-27T23:42:43.311Z,93755.80
2023-03-27T23:45:11.813Z,93754.20
2023-03-27T23:47:41.021Z,93751.40
2023-03-27T23:50:09.810Z,93753.40
2023-03-27T23:52:37.673Z,93754.20
2023-03-27T23:55:05.600Z,93754.80
2023-03-27T23:57:33.158Z,93753.40
